sensor_id;sensor_type;location;lat;lon;timestamp;P1;durP1;ratioP1;P2;durP2;ratioP2
73693;SDS011;61997;53.974;11.670;2022-09-09T00:03:53;3.13;;;2.25;;
73693;SDS011;61997;53.974;11.670;2022-09-09T00:06:23;3.03;;;2.22;;
73693;SDS011;61997;53.974;11.670;2022-09-09T00:09:08;3.28;;;2.30;;
73693;SDS011;61997;53.974;11.670;2022-09-09T00:11:42;3.58;;;2.35;;
73693;SDS011;61997;53.974;11.670;2022-09-09T00:14:25;2.65;;;2.15;;
73693;SDS011;61997;53.974;11.670;2022-09-09T00:16:58;2.67;;;1.70;;
73693;SDS011;61997;53.974;11.670;2022-09-09T00:24:32;2.88;;;2.20;;
73693;SDS011;61997;53.974;11.670;2022-09-09T00:27:01;3.47;;;2.30;;
73693;SDS011;61997;53.974;11.670;2022-09-09T00:29:45;3.97;;;2.60;;
73693;SDS011;61997;53.974;11.670;2022-09-09T00:32:18;3.00;;;2.40;;
73693;SDS011;61997;53.974;11.670;2022-09-09T00:34:49;3.10;;;2.10;;
73693;SDS011;61997;53.974;11.670;2022-09-09T00:37:18;2.75;;;2.00;;
73693;SDS011;61997;53.974;11.670;2022-09-09T00:39:46;2.92;;;2.10;;
73693;SDS011;61997;53.974;11.670;2022-09-09T00:42:18;2.75;;;2.30;;
73693;SDS011;61997;53.974;11.670;2022-09-09T00:44:52;2.90;;;2.10;;
73693;SDS011;61997;53.974;11.670;2022-09-09T00:58:35;3.97;;;2.10;;
73693;SDS011;61997;53.974;11.670;2022-09-09T01:01:04;2.40;;;2.10;;
73693;SDS011;61997;53.974;11.670;2022-09-09T01:06:14;3.45;;;2.08;;
73693;SDS011;61997;53.974;11.670;2022-09-09T01:11:11;2.85;;;2.55;;
73693;SDS011;61997;53.974;11.670;2022-09-09T01:13:45;3.47;;;2.20;;
73693;SDS011;61997;53.974;11.670;2022-09-09T01:16:12;3.47;;;2.20;;
73693;SDS011;61997;53.974;11.670;2022-09-09T01:18:40;2.55;;;2.20;;
73693;SDS011;61997;53.974;11.670;2022-09-09T01:21:13;2.83;;;2.50;;
73693;SDS011;61997;53.974;11.670;2022-09-09T01:24:03;2.75;;;2.05;;
73693;SDS011;61997;53.974;11.670;2022-09-09T01:26:34;2.78;;;1.75;;
73693;SDS011;61997;53.974;11.670;2022-09-09T01:29:00;3.13;;;2.10;;
73693;SDS011;61997;53.974;11.670;2022-09-09T01:31:27;2.47;;;2.00;;
73693;SDS011;61997;53.974;11.670;2022-09-09T01:33:54;2.80;;;2.35;;
73693;SDS011;61997;53.974;11.670;2022-09-09T01:36:25;2.90;;;2.40;;
73693;SDS011;61997;53.974;11.670;2022-09-09T01:38:53;2.97;;;2.30;;
73693;SDS011;61997;53.974;11.670;2022-09-09T01:41:18;2.50;;;2.03;;
73693;SDS011;61997;53.974;11.670;2022-09-09T01:43:44;3.38;;;2.40;;
73693;SDS011;61997;53.974;11.670;2022-09-09T01:46:09;2.97;;;2.30;;
73693;SDS011;61997;53.974;11.670;2022-09-09T01:48:36;2.95;;;2.15;;
73693;SDS011;61997;53.974;11.670;2022-09-09T01:51:01;2.88;;;2.13;;
73693;SDS011;61997;53.974;11.670;2022-09-09T01:53:27;2.90;;;2.13;;
73693;SDS011;61997;53.974;11.670;2022-09-09T02:01:34;3.55;;;2.13;;
73693;SDS011;61997;53.974;11.670;2022-09-09T02:04:26;2.85;;;2.28;;
73693;SDS011;61997;53.974;11.670;2022-09-09T02:07:16;2.78;;;2.30;;
73693;SDS011;61997;53.974;11.670;2022-09-09T02:09:45;2.42;;;1.88;;
73693;SDS011;61997;53.974;11.670;2022-09-09T02:12:13;2.55;;;1.90;;
73693;SDS011;61997;53.974;11.670;2022-09-09T02:14:41;2.92;;;1.98;;
73693;SDS011;61997;53.974;11.670;2022-09-09T02:17:24;2.67;;;2.10;;
73693;SDS011;61997;53.974;11.670;2022-09-09T02:19:54;3.30;;;2.20;;
73693;SDS011;61997;53.974;11.670;2022-09-09T02:22:22;3.30;;;2.13;;
73693;SDS011;61997;53.974;11.670;2022-09-09T02:24:49;3.10;;;2.40;;
73693;SDS011;61997;53.974;11.670;2022-09-09T02:27:17;3.10;;;2.38;;
73693;SDS011;61997;53.974;11.670;2022-09-09T02:29:44;3.05;;;2.25;;
73693;SDS011;61997;53.974;11.670;2022-09-09T02:32:13;3.35;;;2.20;;
73693;SDS011;61997;53.974;11.670;2022-09-09T02:34:42;3.00;;;2.28;;
73693;SDS011;61997;53.974;11.670;2022-09-09T02:37:09;2.70;;;1.95;;
73693;SDS011;61997;53.974;11.670;2022-09-09T02:39:36;2.97;;;2.33;;
73693;SDS011;61997;53.974;11.670;2022-09-09T02:42:03;3.22;;;2.38;;
73693;SDS011;61997;53.974;11.670;2022-09-09T02:44:29;3.00;;;2.47;;
73693;SDS011;61997;53.974;11.670;2022-09-09T02:52:26;2.30;;;1.92;;
73693;SDS011;61997;53.974;11.670;2022-09-09T02:54:59;3.25;;;2.20;;
73693;SDS011;61997;53.974;11.670;2022-09-09T02:57:30;2.85;;;2.40;;
73693;SDS011;61997;53.974;11.670;2022-09-09T03:00:00;2.78;;;1.92;;
73693;SDS011;61997;53.974;11.670;2022-09-09T03:02:29;2.90;;;2.00;;
73693;SDS011;61997;53.974;11.670;2022-09-09T03:04:58;2.85;;;2.00;;
73693;SDS011;61997;53.974;11.670;2022-09-09T03:07:23;3.72;;;2.25;;
73693;SDS011;61997;53.974;11.670;2022-09-09T03:09:49;3.42;;;2.30;;
73693;SDS011;61997;53.974;11.670;2022-09-09T03:14:42;2.60;;;2.27;;
73693;SDS011;61997;53.974;11.670;2022-09-09T03:17:10;3.20;;;2.30;;
73693;SDS011;61997;53.974;11.670;2022-09-09T03:19:38;3.80;;;2.50;;
73693;SDS011;61997;53.974;11.670;2022-09-09T03:22:04;3.70;;;2.30;;
73693;SDS011;61997;53.974;11.670;2022-09-09T03:24:30;3.28;;;2.50;;
73693;SDS011;61997;53.974;11.670;2022-09-09T03:26:57;2.70;;;2.22;;
73693;SDS011;61997;53.974;11.670;2022-09-09T03:29:22;3.22;;;2.10;;
73693;SDS011;61997;53.974;11.670;2022-09-09T03:31:49;2.97;;;2.42;;
73693;SDS011;61997;53.974;11.670;2022-09-09T03:34:16;3.05;;;2.60;;
73693;SDS011;61997;53.974;11.670;2022-09-09T03:36:41;2.80;;;2.20;;
73693;SDS011;61997;53.974;11.670;2022-09-09T03:39:06;3.55;;;2.30;;
73693;SDS011;61997;53.974;11.670;2022-09-09T03:41:32;2.80;;;2.17;;
73693;SDS011;61997;53.974;11.670;2022-09-09T03:43:59;2.85;;;2.42;;
73693;SDS011;61997;53.974;11.670;2022-09-09T03:46:24;3.15;;;2.20;;
73693;SDS011;61997;53.974;11.670;2022-09-09T03:48:50;3.17;;;2.20;;
73693;SDS011;61997;53.974;11.670;2022-09-09T03:51:17;3.17;;;2.00;;
73693;SDS011;61997;53.974;11.670;2022-09-09T03:53:43;3.05;;;2.10;;
73693;SDS011;61997;53.974;11.670;2022-09-09T03:56:09;2.50;;;2.10;;
73693;SDS011;61997;53.974;11.670;2022-09-09T03:58:35;3.65;;;2.50;;
73693;SDS011;61997;53.974;11.670;2022-09-09T04:01:08;2.97;;;2.20;;
73693;SDS011;61997;53.974;11.670;2022-09-09T04:03:35;2.75;;;2.10;;
73693;SDS011;61997;53.974;11.670;2022-09-09T04:06:01;2.85;;;2.30;;
73693;SDS011;61997;53.974;11.670;2022-09-09T04:08:28;2.45;;;1.80;;
73693;SDS011;61997;53.974;11.670;2022-09-09T04:10:56;2.80;;;2.30;;
73693;SDS011;61997;53.974;11.670;2022-09-09T04:13:22;2.67;;;2.30;;
73693;SDS011;61997;53.974;11.670;2022-09-09T04:15:52;2.42;;;1.90;;
73693;SDS011;61997;53.974;11.670;2022-09-09T04:18:22;3.10;;;2.20;;
73693;SDS011;61997;53.974;11.670;2022-09-09T04:20:49;2.97;;;2.38;;
73693;SDS011;61997;53.974;11.670;2022-09-09T04:23:15;2.88;;;2.35;;
73693;SDS011;61997;53.974;11.670;2022-09-09T04:25:44;3.38;;;2.20;;
73693;SDS011;61997;53.974;11.670;2022-09-09T04:28:11;2.50;;;1.90;;
73693;SDS011;61997;53.974;11.670;2022-09-09T04:30:37;2.58;;;1.77;;
73693;SDS011;61997;53.974;11.670;2022-09-09T04:33:04;2.30;;;2.10;;
73693;SDS011;61997;53.974;11.670;2022-09-09T04:35:30;2.75;;;1.90;;
73693;SDS011;61997;53.974;11.670;2022-09-09T04:37:56;2.42;;;2.13;;
73693;SDS011;61997;53.974;11.670;2022-09-09T04:40:21;3.05;;;2.45;;
73693;SDS011;61997;53.974;11.670;2022-09-09T04:42:47;2.95;;;2.17;;
73693;SDS011;61997;53.974;11.670;2022-09-09T04:45:13;3.15;;;2.20;;
73693;SDS011;61997;53.974;11.670;2022-09-09T04:47:38;3.08;;;2.35;;
73693;SDS011;61997;53.974;11.670;2022-09-09T04:50:04;2.35;;;1.98;;
73693;SDS011;61997;53.974;11.670;2022-09-09T04:52:30;3.28;;;2.22;;
73693;SDS011;61997;53.974;11.670;2022-09-09T04:54:55;3.08;;;2.33;;
73693;SDS011;61997;53.974;11.670;2022-09-09T04:57:20;2.60;;;2.08;;
73693;SDS011;61997;53.974;11.670;2022-09-09T04:59:46;2.78;;;2.15;;
73693;SDS011;61997;53.974;11.670;2022-09-09T05:02:11;3.63;;;2.17;;
73693;SDS011;61997;53.974;11.670;2022-09-09T05:04:37;3.03;;;2.40;;
73693;SDS011;61997;53.974;11.670;2022-09-09T05:07:03;2.97;;;1.95;;
73693;SDS011;61997;53.974;11.670;2022-09-09T05:09:28;3.58;;;2.20;;
73693;SDS011;61997;53.974;11.670;2022-09-09T05:11:54;2.25;;;2.05;;
73693;SDS011;61997;53.974;11.670;2022-09-09T05:14:19;2.95;;;2.25;;
73693;SDS011;61997;53.974;11.670;2022-09-09T05:16:45;3.90;;;2.50;;
73693;SDS011;61997;53.974;11.670;2022-09-09T05:19:12;3.30;;;2.58;;
73693;SDS011;61997;53.974;11.670;2022-09-09T05:21:37;2.97;;;2.20;;
73693;SDS011;61997;53.974;11.670;2022-09-09T05:24:03;3.55;;;2.30;;
73693;SDS011;61997;53.974;11.670;2022-09-09T05:26:28;2.83;;;2.30;;
73693;SDS011;61997;53.974;11.670;2022-09-09T05:28:54;2.78;;;2.15;;
73693;SDS011;61997;53.974;11.670;2022-09-09T05:31:20;3.38;;;2.15;;
73693;SDS011;61997;53.974;11.670;2022-09-09T05:33:46;2.33;;;2.10;;
73693;SDS011;61997;53.974;11.670;2022-09-09T05:36:13;2.80;;;2.50;;
73693;SDS011;61997;53.974;11.670;2022-09-09T05:38:40;2.92;;;2.42;;
73693;SDS011;61997;53.974;11.670;2022-09-09T05:41:06;3.50;;;2.25;;
73693;SDS011;61997;53.974;11.670;2022-09-09T05:43:32;3.00;;;2.33;;
73693;SDS011;61997;53.974;11.670;2022-09-09T05:48:33;2.90;;;2.40;;
73693;SDS011;61997;53.974;11.670;2022-09-09T05:51:00;4.03;;;2.00;;
73693;SDS011;61997;53.974;11.670;2022-09-09T05:53:26;2.65;;;1.92;;
73693;SDS011;61997;53.974;11.670;2022-09-09T05:58:45;3.53;;;2.38;;
73693;SDS011;61997;53.974;11.670;2022-09-09T06:01:16;2.65;;;2.08;;
73693;SDS011;61997;53.974;11.670;2022-09-09T06:03:43;2.55;;;2.10;;
73693;SDS011;61997;53.974;11.670;2022-09-09T06:06:11;2.78;;;2.38;;
73693;SDS011;61997;53.974;11.670;2022-09-09T06:08:39;2.63;;;2.20;;
73693;SDS011;61997;53.974;11.670;2022-09-09T06:13:35;3.17;;;2.47;;
73693;SDS011;61997;53.974;11.670;2022-09-09T06:16:03;3.15;;;2.35;;
73693;SDS011;61997;53.974;11.670;2022-09-09T06:18:29;2.92;;;2.13;;
73693;SDS011;61997;53.974;11.670;2022-09-09T06:21:02;3.20;;;2.40;;
73693;SDS011;61997;53.974;11.670;2022-09-09T06:23:29;2.75;;;2.33;;
73693;SDS011;61997;53.974;11.670;2022-09-09T06:26:02;2.85;;;2.22;;
73693;SDS011;61997;53.974;11.670;2022-09-09T06:28:30;2.88;;;2.03;;
73693;SDS011;61997;53.974;11.670;2022-09-09T06:33:25;2.95;;;1.98;;
73693;SDS011;61997;53.974;11.670;2022-09-09T06:35:51;3.70;;;2.30;;
73693;SDS011;61997;53.974;11.670;2022-09-09T06:38:18;2.88;;;2.17;;
73693;SDS011;61997;53.974;11.670;2022-09-09T06:40:50;3.70;;;2.33;;
73693;SDS011;61997;53.974;11.670;2022-09-09T06:43:16;2.42;;;2.05;;
73693;SDS011;61997;53.974;11.670;2022-09-09T06:45:42;3.08;;;2.50;;
73693;SDS011;61997;53.974;11.670;2022-09-09T06:48:07;2.88;;;2.25;;
73693;SDS011;61997;53.974;11.670;2022-09-09T06:50:33;3.80;;;2.10;;
73693;SDS011;61997;53.974;11.670;2022-09-09T06:52:59;3.05;;;2.33;;
73693;SDS011;61997;53.974;11.670;2022-09-09T06:55:25;3.17;;;2.38;;
73693;SDS011;61997;53.974;11.670;2022-09-09T06:57:50;4.00;;;3.10;;
73693;SDS011;61997;53.974;11.670;2022-09-09T07:00:16;3.22;;;2.50;;
73693;SDS011;61997;53.974;11.670;2022-09-09T07:02:42;3.95;;;2.83;;
73693;SDS011;61997;53.974;11.670;2022-09-09T07:05:08;3.40;;;2.50;;
73693;SDS011;61997;53.974;11.670;2022-09-09T07:07:33;3.55;;;2.63;;
73693;SDS011;61997;53.974;11.670;2022-09-09T07:09:58;4.63;;;2.40;;
73693;SDS011;61997;53.974;11.670;2022-09-09T07:12:24;3.22;;;2.58;;
73693;SDS011;61997;53.974;11.670;2022-09-09T07:14:49;3.75;;;2.40;;
73693;SDS011;61997;53.974;11.670;2022-09-09T07:17:15;2.80;;;2.30;;
73693;SDS011;61997;53.974;11.670;2022-09-09T07:19:40;4.25;;;2.85;;
73693;SDS011;61997;53.974;11.670;2022-09-09T07:22:06;4.20;;;2.88;;
73693;SDS011;61997;53.974;11.670;2022-09-09T07:24:31;4.93;;;2.60;;
73693;SDS011;61997;53.974;11.670;2022-09-09T07:26:56;3.35;;;2.17;;
73693;SDS011;61997;53.974;11.670;2022-09-09T07:29:22;3.65;;;2.80;;
73693;SDS011;61997;53.974;11.670;2022-09-09T07:31:47;3.05;;;2.40;;
73693;SDS011;61997;53.974;11.670;2022-09-09T07:34:13;3.33;;;2.67;;
73693;SDS011;61997;53.974;11.670;2022-09-09T07:36:39;3.10;;;2.30;;
73693;SDS011;61997;53.974;11.670;2022-09-09T07:39:06;3.45;;;2.60;;
73693;SDS011;61997;53.974;11.670;2022-09-09T07:41:34;5.00;;;2.70;;
73693;SDS011;61997;53.974;11.670;2022-09-09T07:44:08;3.90;;;2.53;;
73693;SDS011;61997;53.974;11.670;2022-09-09T07:46:36;3.00;;;2.58;;
73693;SDS011;61997;53.974;11.670;2022-09-09T07:49:02;3.47;;;2.95;;
73693;SDS011;61997;53.974;11.670;2022-09-09T07:51:29;3.40;;;2.80;;
73693;SDS011;61997;53.974;11.670;2022-09-09T07:53:59;3.17;;;2.80;;
73693;SDS011;61997;53.974;11.670;2022-09-09T07:56:27;3.67;;;2.83;;
73693;SDS011;61997;53.974;11.670;2022-09-09T07:58:53;3.80;;;2.72;;
73693;SDS011;61997;53.974;11.670;2022-09-09T08:01:24;3.35;;;2.58;;
73693;SDS011;61997;53.974;11.670;2022-09-09T08:03:55;3.88;;;2.75;;
73693;SDS011;61997;53.974;11.670;2022-09-09T08:06:21;4.20;;;2.80;;
73693;SDS011;61997;53.974;11.670;2022-09-09T08:08:49;3.75;;;2.67;;
73693;SDS011;61997;53.974;11.670;2022-09-09T08:11:15;4.45;;;3.08;;
73693;SDS011;61997;53.974;11.670;2022-09-09T08:13:41;3.45;;;2.75;;
73693;SDS011;61997;53.974;11.670;2022-09-09T08:16:12;4.28;;;3.08;;
73693;SDS011;61997;53.974;11.670;2022-09-09T08:18:40;4.35;;;3.38;;
73693;SDS011;61997;53.974;11.670;2022-09-09T08:23:32;4.25;;;3.30;;
73693;SDS011;61997;53.974;11.670;2022-09-09T08:26:20;3.92;;;2.92;;
73693;SDS011;61997;53.974;11.670;2022-09-09T08:28:48;4.10;;;2.95;;
73693;SDS011;61997;53.974;11.670;2022-09-09T08:31:20;3.65;;;2.85;;
73693;SDS011;61997;53.974;11.670;2022-09-09T08:33:47;3.25;;;2.70;;
73693;SDS011;61997;53.974;11.670;2022-09-09T08:36:17;3.63;;;3.25;;
73693;SDS011;61997;53.974;11.670;2022-09-09T08:38:46;4.68;;;3.42;;
73693;SDS011;61997;53.974;11.670;2022-09-09T08:52:36;6.30;;;3.30;;
73693;SDS011;61997;53.974;11.670;2022-09-09T08:57:46;4.10;;;3.17;;
73693;SDS011;61997;53.974;11.670;2022-09-09T09:00:13;3.75;;;3.22;;
73693;SDS011;61997;53.974;11.670;2022-09-09T09:05:44;4.55;;;3.65;;
73693;SDS011;61997;53.974;11.670;2022-09-09T09:08:17;3.83;;;3.10;;
73693;SDS011;61997;53.974;11.670;2022-09-09T09:10:53;4.28;;;3.35;;
73693;SDS011;61997;53.974;11.670;2022-09-09T09:15:52;4.07;;;3.15;;
73693;SDS011;61997;53.974;11.670;2022-09-09T09:18:21;5.20;;;3.90;;
73693;SDS011;61997;53.974;11.670;2022-09-09T09:20:52;4.95;;;3.50;;
73693;SDS011;61997;53.974;11.670;2022-09-09T09:23:23;4.22;;;3.30;;
73693;SDS011;61997;53.974;11.670;2022-09-09T09:25:52;5.15;;;3.72;;
73693;SDS011;61997;53.974;11.670;2022-09-09T09:28:27;4.15;;;3.28;;
73693;SDS011;61997;53.974;11.670;2022-09-09T09:31:07;3.95;;;3.20;;
73693;SDS011;61997;53.974;11.670;2022-09-09T09:36:06;4.45;;;3.33;;
73693;SDS011;61997;53.974;11.670;2022-09-09T09:38:33;3.55;;;3.05;;
73693;SDS011;61997;53.974;11.670;2022-09-09T09:41:00;5.05;;;3.53;;
73693;SDS011;61997;53.974;11.670;2022-09-09T09:45:54;4.78;;;3.55;;
73693;SDS011;61997;53.974;11.670;2022-09-09T09:48:20;8.43;;;3.97;;
73693;SDS011;61997;53.974;11.670;2022-09-09T09:50:46;5.72;;;3.47;;
73693;SDS011;61997;53.974;11.670;2022-09-09T09:53:21;6.05;;;4.13;;
73693;SDS011;61997;53.974;11.670;2022-09-09T09:55:50;5.85;;;3.95;;
73693;SDS011;61997;53.974;11.670;2022-09-09T09:58:20;4.07;;;3.20;;
73693;SDS011;61997;53.974;11.670;2022-09-09T10:00:49;4.50;;;3.20;;
73693;SDS011;61997;53.974;11.670;2022-09-09T10:03:22;4.45;;;3.60;;
73693;SDS011;61997;53.974;11.670;2022-09-09T10:05:51;5.43;;;3.50;;
73693;SDS011;61997;53.974;11.670;2022-09-09T10:08:17;4.75;;;3.72;;
73693;SDS011;61997;53.974;11.670;2022-09-09T10:30:01;5.20;;;3.55;;
73693;SDS011;61997;53.974;11.670;2022-09-09T10:32:38;4.10;;;3.70;;
73693;SDS011;61997;53.974;11.670;2022-09-09T10:38:10;4.65;;;3.60;;
73693;SDS011;61997;53.974;11.670;2022-09-09T10:48:30;4.22;;;3.17;;
73693;SDS011;61997;53.974;11.670;2022-09-09T10:56:17;5.53;;;3.50;;
73693;SDS011;61997;53.974;11.670;2022-09-09T10:59:18;4.43;;;3.65;;
73693;SDS011;61997;53.974;11.670;2022-09-09T11:01:43;4.28;;;3.45;;
73693;SDS011;61997;53.974;11.670;2022-09-09T11:04:22;4.30;;;3.45;;
73693;SDS011;61997;53.974;11.670;2022-09-09T11:06:52;4.85;;;3.72;;
73693;SDS011;61997;53.974;11.670;2022-09-09T11:09:21;4.80;;;3.30;;
73693;SDS011;61997;53.974;11.670;2022-09-09T11:11:55;5.22;;;3.70;;
73693;SDS011;61997;53.974;11.670;2022-09-09T11:14:33;5.38;;;3.88;;
73693;SDS011;61997;53.974;11.670;2022-09-09T11:22:15;4.60;;;3.72;;
73693;SDS011;61997;53.974;11.670;2022-09-09T11:25:05;6.15;;;3.75;;
73693;SDS011;61997;53.974;11.670;2022-09-09T11:30:18;5.03;;;3.40;;
73693;SDS011;61997;53.974;11.670;2022-09-09T11:41:02;5.75;;;3.40;;
73693;SDS011;61997;53.974;11.670;2022-09-09T11:43:48;4.05;;;3.65;;
73693;SDS011;61997;53.974;11.670;2022-09-09T11:46:16;3.92;;;3.55;;
73693;SDS011;61997;53.974;11.670;2022-09-09T11:48:44;3.88;;;3.38;;
73693;SDS011;61997;53.974;11.670;2022-09-09T11:56:53;4.07;;;3.20;;
73693;SDS011;61997;53.974;11.670;2022-09-09T11:59:23;5.10;;;3.00;;
73693;SDS011;61997;53.974;11.670;2022-09-09T12:02:02;4.63;;;3.40;;
73693;SDS011;61997;53.974;11.670;2022-09-09T12:04:39;5.07;;;3.13;;
73693;SDS011;61997;53.974;11.670;2022-09-09T12:07:27;4.10;;;3.70;;
73693;SDS011;61997;53.974;11.670;2022-09-09T12:09:59;3.90;;;3.45;;
73693;SDS011;61997;53.974;11.670;2022-09-09T12:12:34;4.53;;;3.28;;
73693;SDS011;61997;53.974;11.670;2022-09-09T12:17:36;3.65;;;2.95;;
73693;SDS011;61997;53.974;11.670;2022-09-09T12:28:11;4.18;;;3.40;;
73693;SDS011;61997;53.974;11.670;2022-09-09T12:30:49;4.57;;;3.00;;
73693;SDS011;61997;53.974;11.670;2022-09-09T12:33:23;3.92;;;3.05;;
73693;SDS011;61997;53.974;11.670;2022-09-09T12:35:54;4.45;;;2.72;;
73693;SDS011;61997;53.974;11.670;2022-09-09T12:38:32;4.00;;;3.28;;
73693;SDS011;61997;53.974;11.670;2022-09-09T12:40:59;3.85;;;3.03;;
73693;SDS011;61997;53.974;11.670;2022-09-09T12:43:26;4.20;;;3.35;;
73693;SDS011;61997;53.974;11.670;2022-09-09T12:45:59;3.97;;;2.90;;
73693;SDS011;61997;53.974;11.670;2022-09-09T12:48:34;4.25;;;2.75;;
73693;SDS011;61997;53.974;11.670;2022-09-09T12:51:01;4.00;;;3.20;;
73693;SDS011;61997;53.974;11.670;2022-09-09T12:53:37;3.45;;;3.13;;
73693;SDS011;61997;53.974;11.670;2022-09-09T12:56:07;4.28;;;3.38;;
73693;SDS011;61997;53.974;11.670;2022-09-09T12:58:35;3.63;;;2.83;;
73693;SDS011;61997;53.974;11.670;2022-09-09T13:01:02;3.83;;;3.00;;
73693;SDS011;61997;53.974;11.670;2022-09-09T13:03:32;4.35;;;2.88;;
73693;SDS011;61997;53.974;11.670;2022-09-09T13:05:59;3.53;;;2.70;;
73693;SDS011;61997;53.974;11.670;2022-09-09T13:08:36;4.30;;;2.88;;
73693;SDS011;61997;53.974;11.670;2022-09-09T13:11:03;4.07;;;3.28;;
73693;SDS011;61997;53.974;11.670;2022-09-09T13:13:35;3.33;;;2.55;;
73693;SDS011;61997;53.974;11.670;2022-09-09T13:16:03;3.00;;;2.70;;
73693;SDS011;61997;53.974;11.670;2022-09-09T13:18:33;3.55;;;2.67;;
73693;SDS011;61997;53.974;11.670;2022-09-09T13:20:59;2.90;;;2.60;;
73693;SDS011;61997;53.974;11.670;2022-09-09T13:23:29;3.72;;;2.90;;
73693;SDS011;61997;53.974;11.670;2022-09-09T13:26:18;3.88;;;2.80;;
73693;SDS011;61997;53.974;11.670;2022-09-09T13:28:52;3.08;;;2.78;;
73693;SDS011;61997;53.974;11.670;2022-09-09T13:33:53;2.90;;;2.45;;
73693;SDS011;61997;53.974;11.670;2022-09-09T13:36:27;3.97;;;2.65;;
73693;SDS011;61997;53.974;11.670;2022-09-09T13:38:54;3.55;;;2.85;;
73693;SDS011;61997;53.974;11.670;2022-09-09T13:41:22;3.35;;;2.70;;
73693;SDS011;61997;53.974;11.670;2022-09-09T13:43:49;3.53;;;2.60;;
73693;SDS011;61997;53.974;11.670;2022-09-09T13:49:01;3.42;;;2.70;;
73693;SDS011;61997;53.974;11.670;2022-09-09T13:51:40;3.08;;;2.53;;
73693;SDS011;61997;53.974;11.670;2022-09-09T13:54:10;2.80;;;2.53;;
73693;SDS011;61997;53.974;11.670;2022-09-09T13:56:37;2.97;;;2.47;;
73693;SDS011;61997;53.974;11.670;2022-09-09T13:59:05;3.92;;;2.70;;
73693;SDS011;61997;53.974;11.670;2022-09-09T14:01:33;3.35;;;2.50;;
73693;SDS011;61997;53.974;11.670;2022-09-09T14:03:59;2.90;;;2.45;;
73693;SDS011;61997;53.974;11.670;2022-09-09T14:06:25;2.80;;;2.25;;
73693;SDS011;61997;53.974;11.670;2022-09-09T14:08:50;3.55;;;2.38;;
73693;SDS011;61997;53.974;11.670;2022-09-09T14:11:16;3.75;;;2.28;;
73693;SDS011;61997;53.974;11.670;2022-09-09T14:13:42;3.53;;;2.50;;
73693;SDS011;61997;53.974;11.670;2022-09-09T14:16:08;2.80;;;2.47;;
73693;SDS011;61997;53.974;11.670;2022-09-09T14:18:34;3.03;;;2.45;;
73693;SDS011;61997;53.974;11.670;2022-09-09T14:21:00;3.40;;;2.58;;
73693;SDS011;61997;53.974;11.670;2022-09-09T14:23:27;2.70;;;2.08;;
73693;SDS011;61997;53.974;11.670;2022-09-09T14:25:52;2.75;;;2.40;;
73693;SDS011;61997;53.974;11.670;2022-09-09T14:28:18;2.85;;;2.20;;
73693;SDS011;61997;53.974;11.670;2022-09-09T14:30:43;3.13;;;2.58;;
73693;SDS011;61997;53.974;11.670;2022-09-09T14:33:14;3.90;;;2.88;;
73693;SDS011;61997;53.974;11.670;2022-09-09T14:35:40;2.75;;;2.35;;
73693;SDS011;61997;53.974;11.670;2022-09-09T14:38:06;3.05;;;2.00;;
73693;SDS011;61997;53.974;11.670;2022-09-09T14:40:33;2.50;;;2.17;;
73693;SDS011;61997;53.974;11.670;2022-09-09T14:42:59;2.97;;;2.58;;
73693;SDS011;61997;53.974;11.670;2022-09-09T14:45:24;2.83;;;2.53;;
73693;SDS011;61997;53.974;11.670;2022-09-09T14:47:51;2.28;;;2.08;;
73693;SDS011;61997;53.974;11.670;2022-09-09T14:50:17;2.92;;;2.55;;
73693;SDS011;61997;53.974;11.670;2022-09-09T14:52:43;3.83;;;2.72;;
73693;SDS011;61997;53.974;11.670;2022-09-09T14:55:09;3.22;;;2.45;;
73693;SDS011;61997;53.974;11.670;2022-09-09T14:57:34;2.95;;;2.50;;
73693;SDS011;61997;53.974;11.670;2022-09-09T15:00:01;2.75;;;2.20;;
73693;SDS011;61997;53.974;11.670;2022-09-09T15:02:28;2.67;;;2.30;;
73693;SDS011;61997;53.974;11.670;2022-09-09T15:04:54;2.72;;;2.38;;
73693;SDS011;61997;53.974;11.670;2022-09-09T15:07:22;2.72;;;2.50;;
73693;SDS011;61997;53.974;11.670;2022-09-09T15:09:48;2.90;;;2.20;;
73693;SDS011;61997;53.974;11.670;2022-09-09T15:12:14;3.22;;;2.33;;
73693;SDS011;61997;53.974;11.670;2022-09-09T15:14:41;3.33;;;2.33;;
73693;SDS011;61997;53.974;11.670;2022-09-09T15:17:07;2.65;;;2.33;;
73693;SDS011;61997;53.974;11.670;2022-09-09T15:19:33;3.33;;;2.20;;
73693;SDS011;61997;53.974;11.670;2022-09-09T15:21:58;2.97;;;2.05;;
73693;SDS011;61997;53.974;11.670;2022-09-09T15:24:24;3.13;;;2.22;;
73693;SDS011;61997;53.974;11.670;2022-09-09T15:26:51;3.47;;;2.50;;
73693;SDS011;61997;53.974;11.670;2022-09-09T15:29:17;3.47;;;2.40;;
73693;SDS011;61997;53.974;11.670;2022-09-09T15:31:42;2.75;;;2.45;;
73693;SDS011;61997;53.974;11.670;2022-09-09T15:34:08;3.30;;;2.28;;
73693;SDS011;61997;53.974;11.670;2022-09-09T15:39:00;2.53;;;2.10;;
73693;SDS011;61997;53.974;11.670;2022-09-09T15:41:27;2.50;;;2.30;;
73693;SDS011;61997;53.974;11.670;2022-09-09T15:43:54;4.32;;;2.60;;
73693;SDS011;61997;53.974;11.670;2022-09-09T15:46:24;3.13;;;2.40;;
73693;SDS011;61997;53.974;11.670;2022-09-09T15:49:17;2.50;;;1.90;;
73693;SDS011;61997;53.974;11.670;2022-09-09T15:51:57;2.70;;;2.00;;
73693;SDS011;61997;53.974;11.670;2022-09-09T15:54:24;3.08;;;2.30;;
73693;SDS011;61997;53.974;11.670;2022-09-09T15:57:00;3.15;;;2.22;;
73693;SDS011;61997;53.974;11.670;2022-09-09T15:59:27;3.22;;;2.50;;
73693;SDS011;61997;53.974;11.670;2022-09-09T16:01:54;3.13;;;2.22;;
73693;SDS011;61997;53.974;11.670;2022-09-09T16:04:20;2.95;;;2.08;;
73693;SDS011;61997;53.974;11.670;2022-09-09T16:06:58;5.82;;;2.47;;
73693;SDS011;61997;53.974;11.670;2022-09-09T16:09:25;4.57;;;2.17;;
73693;SDS011;61997;53.974;11.670;2022-09-09T16:11:51;5.30;;;2.47;;
73693;SDS011;61997;53.974;11.670;2022-09-09T16:14:18;8.77;;;2.40;;
73693;SDS011;61997;53.974;11.670;2022-09-09T16:16:43;4.90;;;2.58;;
73693;SDS011;61997;53.974;11.670;2022-09-09T16:19:10;7.88;;;3.10;;
73693;SDS011;61997;53.974;11.670;2022-09-09T16:21:38;4.90;;;2.40;;
73693;SDS011;61997;53.974;11.670;2022-09-09T16:24:05;9.05;;;2.50;;
73693;SDS011;61997;53.974;11.670;2022-09-09T16:26:33;10.15;;;2.88;;
73693;SDS011;61997;53.974;11.670;2022-09-09T16:28:59;14.95;;;3.10;;
73693;SDS011;61997;53.974;11.670;2022-09-09T16:31:26;11.07;;;3.25;;
73693;SDS011;61997;53.974;11.670;2022-09-09T16:33:52;10.98;;;3.20;;
73693;SDS011;61997;53.974;11.670;2022-09-09T16:36:19;9.10;;;2.92;;
73693;SDS011;61997;53.974;11.670;2022-09-09T16:38:46;10.60;;;3.38;;
73693;SDS011;61997;53.974;11.670;2022-09-09T16:41:12;11.32;;;3.17;;
73693;SDS011;61997;53.974;11.670;2022-09-09T16:43:41;10.73;;;3.00;;
73693;SDS011;61997;53.974;11.670;2022-09-09T16:48:40;11.05;;;2.78;;
73693;SDS011;61997;53.974;11.670;2022-09-09T16:51:07;9.93;;;2.80;;
73693;SDS011;61997;53.974;11.670;2022-09-09T16:53:35;10.77;;;3.05;;
73693;SDS011;61997;53.974;11.670;2022-09-09T16:56:04;9.40;;;2.95;;
73693;SDS011;61997;53.974;11.670;2022-09-09T16:58:31;10.40;;;2.80;;
73693;SDS011;61997;53.974;11.670;2022-09-09T17:01:00;9.57;;;3.40;;
73693;SDS011;61997;53.974;11.670;2022-09-09T17:03:28;5.78;;;2.55;;
73693;SDS011;61997;53.974;11.670;2022-09-09T17:05:59;10.20;;;2.85;;
73693;SDS011;61997;53.974;11.670;2022-09-09T17:08:28;9.65;;;2.80;;
73693;SDS011;61997;53.974;11.670;2022-09-09T17:10:56;6.78;;;2.25;;
73693;SDS011;61997;53.974;11.670;2022-09-09T17:13:22;10.88;;;3.00;;
73693;SDS011;61997;53.974;11.670;2022-09-09T17:15:48;5.55;;;2.13;;